Página principal
METAR-TAF:

METAR-TAF

Aeroportos :

Aeroporto Internacional Simón Bolívar

Caracas, Venezuela

latitude: 10-36N, longitude: 066-59W, altura: 43 m

Observação actual do tempo

O boletim foi feito há 1 hora e 42 minutos, às 22:00 UTC
Vento 2 kt de norte
Temperatura 26°C
Humidade 70%
Pressão 1012 hPa
Visibilidade 10 km ou mais
Poucas nuvensa uma altura de 1600 ft

METAR: SVMI 152200Z 36002KT 9999 FEW016 26/20 Q1012

Hora: 19:42 (23:42 UTC)

Previsão

O boletim foi feito há 1 hora e 42 minutos, às 22:00 UTC
Previsão válida de 16 às 00 UTC a 17 às 00 UTC
Vento 5 kt de nordeste
Visibilidade 10 km ou mais
Nuvens dispersasa uma altura de 1600 ft
Tornando-se
de 16 às 00 UTC a 16 às 04 UTC
Vento kt de norte
Visibilidade 10 km ou mais
sem nuvens abaixo de 1500 metros e sem cumulonimbus

TAF: SVMI 152200Z 1600/1700 05005KT 9999 SCT016 TX33/18Z TN24/09Z BECMG 1600/1604 00000KT CAVOK

Observações e previsões do tempo de mais de 4000 aeroportos (mensagens METAR e TAF).

As estações disponíveis são os pontos amarelos e vermelhos sobre o mapa.

Mova o rato sobre o mapa para ver o nome da estação.

Depois clique no ponto para visualizar as observações e previsões meteorológicas.

Para alterar o mapa : clique nos botões verdes com uma cruz preta para aumentar o zoom; no botão verde com uma pitada de zoom; ou nas setas verdes para mapas adjacentes.


METAR-TAF: